Svetlograd, Russia
Current Conditions -  °F | °C
As of 12:30 PM on Sunday 26 Oct 2014 (Local Time) from URMT Reporting Station
Broken Clouds Broken Clouds  
Wind Chill:   Ceiling: 1100
Heat Index: 19°   Visibility: 6mi
Dew Point: 19°   Wind: 9mph
Humidity: 100%   Direction: 110°ESE
Pressure: 30.45"   Gusts: NA
Location:  45.34°N, 42.85°E
Report Text: URMT 260930Z 11004MPS 9999 BKN011 BKN100 M07/M07 Q1031 NOSIGRMK QFE733 SC060
Loading
Personal Weather Stations






























Interactive Weather Map
Tropical Storm Tracking
New forecast layout! Learn more

10-Day Weather Forecast

Advertisements
Track Severe Weather on mobile